createdAt,value
2019-04-26T00:01:47.801Z,38.00
2019-04-26T00:04:19.973Z,38.68
2019-04-26T00:06:51.521Z,38.18
2019-04-26T00:09:36.718Z,38.09
2019-04-26T00:12:33.142Z,36.89
2019-04-26T00:15:16.394Z,35.28
2019-04-26T00:17:51.628Z,35.49
2019-04-26T00:20:23.380Z,35.65
2019-04-26T00:22:55.117Z,35.19
2019-04-26T00:25:27.043Z,35.30
2019-04-26T00:27:59.167Z,35.72
2019-04-26T00:30:31.114Z,35.92
2019-04-26T00:33:03.238Z,36.39
2019-04-26T00:35:46.905Z,37.00
2019-04-26T00:38:09.460Z,37.63
2019-04-26T00:40:42.573Z,40.12
2019-04-26T00:43:14.297Z,42.80
2019-04-26T00:45:46.556Z,44.38
2019-04-26T00:48:19.002Z,45.53
2019-04-26T00:50:51.869Z,47.81
2019-04-26T00:53:24.099Z,47.81
2019-04-26T00:55:55.892Z,48.03
2019-04-26T00:58:28.421Z,48.20
2019-04-26T01:01:01.869Z,48.63
2019-04-26T01:03:34.125Z,49.03
2019-04-26T01:06:07.756Z,49.03
2019-04-26T01:08:39.355Z,49.00
2019-04-26T01:11:11.509Z,49.15
2019-04-26T01:13:43.406Z,49.50
2019-04-26T01:16:15.866Z,49.22
2019-04-26T01:18:48.616Z,49.80
2019-04-26T01:21:20.908Z,50.21
2019-04-26T01:23:52.688Z,51.00
2019-04-26T01:26:28.952Z,50.82
2019-04-26T01:29:06.549Z,51.11
2019-04-26T01:31:49.727Z,51.11
2019-04-26T01:34:22.127Z,50.57
2019-04-26T01:36:54.701Z,51.45
2019-04-26T01:39:26.569Z,51.34
2019-04-26T01:42:09.169Z,51.50
2019-04-26T01:45:00.892Z,52.47
2019-04-26T01:47:33.067Z,51.73
2019-04-26T01:50:06.348Z,52.53
2019-04-26T01:52:38.267Z,52.46
2019-04-26T01:55:11.595Z,52.44
2019-04-26T01:57:43.662Z,52.86
2019-04-26T02:00:25.558Z,52.80
2019-04-26T02:03:00.267Z,52.85
2019-04-26T02:05:32.282Z,53.00
2019-04-26T02:08:04.464Z,53.13
2019-04-26T02:10:35.770Z,53.64
2019-04-26T02:13:07.949Z,53.66
2019-04-26T02:15:39.579Z,53.51
2019-04-26T02:18:11.248Z,53.53
2019-04-26T02:21:20.502Z,53.61
2019-04-26T02:24:14.266Z,53.26
2019-04-26T02:26:46.635Z,53.22
2019-04-26T02:29:22.998Z,53.54
2019-04-26T02:31:58.369Z,54.24
2019-04-26T02:34:33.197Z,54.08
2019-04-26T02:37:06.763Z,54.08
2019-04-26T02:39:41.341Z,54.72
2019-04-26T02:42:28.807Z,54.59
2019-04-26T02:45:55.456Z,54.45
2019-04-26T02:48:40.317Z,54.93
2019-04-26T02:51:16.936Z,54.99
2019-04-26T02:54:17.769Z,55.00
2019-04-26T02:56:49.884Z,55.11
2019-04-26T02:59:53.630Z,55.46
2019-04-26T03:02:25.803Z,55.90
2019-04-26T03:04:59.436Z,55.76
2019-04-26T03:07:51.556Z,55.80
2019-04-26T03:10:31.722Z,56.77
2019-04-26T03:13:04.742Z,56.77
2019-04-26T03:15:52.307Z,56.23
2019-04-26T03:18:35.618Z,56.46
2019-04-26T03:21:15.996Z,56.55
2019-04-26T03:23:58.578Z,57.47
2019-04-26T03:27:02.100Z,58.01
2019-04-26T03:30:19.011Z,58.21
2019-04-26T03:33:29.609Z,56.59
2019-04-26T03:36:37.104Z,57.53
2019-04-26T03:39:26.438Z,58.19
2019-04-26T03:42:16.953Z,57.88
2019-04-26T03:45:03.436Z,58.05
2019-04-26T03:47:40.796Z,58.69
2019-04-26T03:50:15.561Z,59.00
2019-04-26T03:53:18.920Z,59.00
2019-04-26T03:56:29.855Z,59.57
2019-04-26T03:59:54.331Z,59.73
2019-04-26T04:02:48.536Z,59.61
2019-04-26T04:05:31.303Z,59.93
2019-04-26T04:08:04.499Z,59.70
2019-04-26T04:10:46.067Z,59.53
2019-04-26T04:13:42.744Z,59.30
2019-04-26T04:16:24.838Z,59.38
2019-04-26T04:19:04.798Z,59.76
2019-04-26T04:21:53.479Z,59.36
2019-04-26T04:24:35.005Z,59.69
2019-04-26T04:27:10.766Z,60.12
2019-04-26T04:30:11.340Z,59.55
2019-04-26T04:32:52.288Z,59.85
2019-04-26T04:35:25.651Z,60.47
2019-04-26T04:38:09.680Z,59.62
2019-04-26T04:41:18.797Z,60.21
2019-04-26T04:44:02.597Z,60.20
2019-04-26T04:47:23.849Z,60.35
2019-04-26T04:49:54.751Z,60.59
2019-04-26T04:52:41.329Z,60.76
2019-04-26T04:55:17.639Z,60.78
2019-04-26T04:58:19.924Z,60.97
2019-04-26T05:01:33.003Z,60.92
2019-04-26T05:04:14.589Z,60.66
2019-04-26T05:07:25.407Z,60.93
2019-04-26T05:10:12.271Z,60.48
2019-04-26T05:12:55.191Z,59.95
2019-04-26T05:16:14.304Z,59.06
2019-04-26T05:19:26.666Z,59.20
2019-04-26T05:22:29.787Z,58.42
2019-04-26T05:25:46.881Z,58.87
2019-04-26T05:28:33.481Z,59.06
2019-04-26T05:31:45.813Z,58.88
2019-04-26T05:34:39.997Z,58.19
2019-04-26T05:37:42.864Z,57.68
2019-04-26T05:40:41.422Z,58.01
2019-04-26T05:43:58.059Z,58.76
2019-04-26T05:50:34.331Z,58.94
2019-04-26T05:53:58.603Z,58.58
2019-04-26T05:56:43.408Z,58.82
2019-04-26T05:59:49.030Z,58.30
2019-04-26T06:02:49.999Z,59.35
2019-04-26T06:06:05.318Z,58.79
2019-04-26T06:09:02.330Z,59.11
2019-04-26T06:11:43.545Z,58.74
2019-04-26T06:14:51.421Z,58.95
2019-04-26T06:17:55.205Z,59.66
2019-04-26T06:20:57.907Z,59.37
2019-04-26T06:23:39.496Z,59.28
2019-04-26T06:26:37.603Z,59.14
2019-04-26T06:29:15.515Z,59.27
2019-04-26T06:31:50.692Z,58.80
2019-04-26T06:34:47.860Z,59.21
2019-04-26T06:37:38.404Z,58.58
2019-04-26T06:40:14.684Z,58.89
2019-04-26T06:43:27.390Z,59.37
2019-04-26T06:46:35.557Z,58.98
2019-04-26T06:49:25.965Z,58.38
2019-04-26T06:52:02.591Z,58.62
2019-04-26T06:54:51.401Z,57.14
2019-04-26T06:58:03.422Z,57.31
2019-04-26T07:00:50.412Z,57.15
2019-04-26T07:03:30.879Z,57.06
2019-04-26T07:06:04.484Z,57.09
2019-04-26T07:08:57.053Z,56.75
2019-04-26T07:12:26.390Z,56.72
2019-04-26T07:15:34.407Z,56.59
2019-04-26T07:18:29.687Z,55.50
2019-04-26T07:21:20.269Z,55.55
2019-04-26T07:24:20.578Z,55.73
2019-04-26T07:27:16.588Z,55.17
2019-04-26T07:30:12.403Z,54.18
2019-04-26T07:33:20.978Z,54.47
2019-04-26T07:36:09.776Z,53.26
2019-04-26T07:39:19.901Z,53.52
2019-04-26T07:42:27.828Z,52.83
2019-04-26T07:45:49.796Z,53.35
2019-04-26T07:48:55.035Z,53.82
2019-04-26T07:52:12.609Z,54.30
2019-04-26T07:55:19.784Z,54.99
2019-04-26T07:58:37.322Z,55.48
2019-04-26T08:01:28.329Z,55.56
2019-04-26T08:04:07.190Z,54.79
2019-04-26T08:06:44.196Z,53.11
2019-04-26T08:09:26.450Z,52.73
2019-04-26T08:11:55.039Z,52.50
2019-04-26T08:14:38.949Z,51.87
2019-04-26T08:17:41.807Z,52.11
2019-04-26T08:20:23.464Z,52.60
2019-04-26T08:22:58.348Z,53.04
2019-04-26T08:25:31.316Z,52.88
2019-04-26T08:28:04.252Z,52.69
2019-04-26T08:30:40.553Z,52.69
2019-04-26T08:33:14.518Z,52.89
2019-04-26T08:35:49.010Z,52.35
2019-04-26T08:38:22.763Z,51.90
2019-04-26T08:40:54.220Z,52.03
2019-04-26T08:43:45.175Z,52.75
2019-04-26T08:46:42.966Z,50.72
2019-04-26T08:49:35.138Z,49.66
2019-04-26T08:52:14.186Z,50.72
2019-04-26T08:54:47.540Z,51.41
2019-04-26T08:57:19.870Z,51.81
2019-04-26T08:59:54.991Z,52.80
2019-04-26T09:02:46.177Z,52.98
2019-04-26T09:05:40.741Z,53.30
2019-04-26T09:08:14.649Z,52.68
2019-04-26T09:10:48.216Z,53.27
2019-04-26T09:13:21.859Z,53.43
2019-04-26T09:16:13.852Z,53.32
2019-04-26T09:18:52.518Z,52.19
2019-04-26T09:21:21.542Z,50.33
2019-04-26T09:24:21.151Z,50.70
2019-04-26T09:27:12.623Z,49.98
2019-04-26T09:30:09.055Z,50.74
2019-04-26T09:32:47.624Z,50.46
2019-04-26T09:35:18.986Z,50.69
2019-04-26T09:37:49.983Z,50.98
2019-04-26T09:40:22.649Z,50.70
2019-04-26T09:43:04.579Z,50.48
2019-04-26T09:45:48.174Z,50.70
2019-04-26T09:48:38.442Z,51.94
2019-04-26T09:51:09.473Z,51.66
2019-04-26T09:53:43.520Z,52.09
2019-04-26T09:56:13.428Z,51.02
2019-04-26T09:58:44.517Z,51.43
2019-04-26T10:01:15.640Z,52.32
2019-04-26T10:03:46.906Z,52.50
2019-04-26T10:06:17.976Z,53.49
2019-04-26T10:08:48.916Z,53.16
2019-04-26T10:11:22.005Z,53.63
2019-04-26T10:14:05.011Z,53.73
2019-04-26T10:16:42.673Z,53.97
2019-04-26T10:19:16.961Z,54.10
2019-04-26T10:21:47.972Z,54.65
2019-04-26T10:24:18.945Z,54.33
2019-04-26T10:26:49.943Z,54.24
2019-04-26T10:29:21.711Z,53.48
2019-04-26T10:31:54.555Z,53.64
2019-04-26T10:34:25.507Z,52.85
2019-04-26T10:36:57.235Z,52.09
2019-04-26T10:39:32.529Z,52.72
2019-04-26T10:42:02.145Z,53.46
2019-04-26T10:44:35.728Z,53.25
2019-04-26T10:47:07.175Z,53.71
2019-04-26T10:49:40.088Z,54.21
2019-04-26T10:52:18.097Z,55.26
2019-04-26T10:54:55.061Z,55.24
2019-04-26T10:57:33.052Z,55.24
2019-04-26T11:00:07.241Z,54.92
2019-04-26T11:02:38.569Z,54.88
2019-04-26T11:05:11.581Z,55.09
2019-04-26T11:07:42.300Z,55.41
2019-04-26T11:10:14.475Z,55.18
2019-04-26T11:12:45.469Z,55.59
2019-04-26T11:15:16.636Z,55.76
2019-04-26T11:17:49.979Z,55.21
2019-04-26T11:20:21.587Z,55.63
2019-04-26T11:22:52.631Z,55.50
2019-04-26T11:25:24.669Z,55.20
2019-04-26T11:27:56.369Z,54.37
2019-04-26T11:30:27.726Z,53.93
2019-04-26T11:32:59.016Z,54.33
2019-04-26T11:35:33.275Z,55.08
2019-04-26T11:38:03.077Z,55.48
2019-04-26T11:40:34.135Z,55.57
2019-04-26T11:43:05.279Z,55.06
2019-04-26T11:45:36.301Z,55.37
2019-04-26T11:48:07.526Z,54.62
2019-04-26T11:50:38.554Z,54.99
2019-04-26T11:53:11.175Z,55.35
2019-04-26T11:55:42.590Z,54.78
2019-04-26T11:58:17.798Z,54.79
2019-04-26T12:00:52.213Z,54.49
2019-04-26T12:03:24.860Z,54.98
2019-04-26T12:06:11.609Z,55.39
2019-04-26T12:08:47.491Z,55.62
2019-04-26T12:11:25.696Z,55.66
2019-04-26T12:13:51.329Z,55.12
2019-04-26T12:16:22.575Z,54.70
2019-04-26T12:18:53.829Z,54.58
2019-04-26T12:21:25.505Z,55.22
2019-04-26T12:23:56.833Z,56.05
2019-04-26T12:26:27.949Z,56.34
2019-04-26T12:28:59.247Z,56.56
2019-04-26T12:31:30.241Z,56.50
2019-04-26T12:34:01.803Z,56.23
2019-04-26T12:36:32.828Z,54.93
2019-04-26T12:39:04.755Z,54.92
2019-04-26T12:41:40.719Z,55.58
2019-04-26T12:44:11.654Z,55.60
2019-04-26T12:46:50.607Z,55.13
2019-04-26T12:49:24.333Z,54.94
2019-04-26T12:51:54.679Z,55.37
2019-04-26T12:54:25.649Z,54.96
2019-04-26T12:56:56.709Z,54.19
2019-04-26T12:59:28.215Z,53.74
2019-04-26T13:02:05.784Z,53.74
2019-04-26T13:04:36.317Z,53.42
2019-04-26T13:07:23.938Z,53.47
2019-04-26T13:10:18.090Z,53.25
2019-04-26T13:12:55.687Z,53.23
2019-04-26T13:16:21.491Z,53.12
2019-04-26T13:18:51.608Z,52.86
2019-04-26T13:21:23.273Z,51.98
2019-04-26T13:24:00.190Z,51.73
2019-04-26T13:26:30.277Z,51.57
2019-04-26T13:29:02.478Z,51.98
2019-04-26T13:31:33.825Z,51.71
2019-04-26T13:34:05.068Z,52.14
2019-04-26T13:36:36.363Z,52.53
2019-04-26T13:39:13.471Z,52.58
2019-04-26T13:41:44.128Z,52.52
2019-04-26T13:44:16.766Z,52.83
2019-04-26T13:47:07.979Z,52.38
2019-04-26T13:49:52.353Z,52.50
2019-04-26T13:52:22.710Z,52.21
2019-04-26T13:54:55.539Z,52.66
2019-04-26T13:57:27.527Z,52.19
2019-04-26T13:59:58.550Z,53.91
2019-04-26T14:02:29.811Z,53.91
2019-04-26T14:05:00.790Z,53.44
2019-04-26T14:07:32.121Z,53.63
2019-04-26T14:10:04.499Z,53.65
2019-04-26T14:12:35.596Z,54.04
2019-04-26T14:15:08.587Z,53.70
2019-04-26T14:17:39.919Z,54.97
2019-04-26T14:20:11.428Z,54.65
2019-04-26T14:22:50.136Z,54.35
2019-04-26T14:25:22.458Z,55.47
2019-04-26T14:27:54.287Z,55.50
2019-04-26T14:30:25.272Z,56.12
2019-04-26T14:32:57.391Z,56.42
2019-04-26T14:35:29.529Z,55.99
2019-04-26T14:38:00.802Z,56.81
2019-04-26T14:40:32.247Z,57.59
2019-04-26T14:43:06.909Z,57.83
2019-04-26T14:45:36.438Z,58.54
2019-04-26T14:48:20.173Z,58.91
2019-04-26T14:50:41.343Z,58.78
2019-04-26T14:53:12.353Z,58.27
2019-04-26T14:55:44.314Z,58.36
2019-04-26T14:58:15.258Z,57.53
2019-04-26T15:00:51.436Z,58.14
2019-04-26T15:03:36.164Z,58.57
2019-04-26T15:06:16.782Z,60.27
2019-04-26T15:08:48.684Z,60.29
2019-04-26T15:11:19.359Z,60.73
2019-04-26T15:13:50.623Z,61.32
2019-04-26T15:16:24.327Z,61.46
2019-04-26T15:18:54.802Z,62.78
2019-04-26T15:21:27.301Z,62.94
2019-04-26T15:23:59.410Z,63.75
2019-04-26T15:26:32.777Z,63.68
2019-04-26T15:29:04.489Z,63.38
2019-04-26T15:31:36.522Z,63.61
2019-04-26T15:34:07.556Z,64.06
2019-04-26T15:36:38.598Z,63.96
2019-04-26T15:39:21.263Z,63.96
2019-04-26T15:42:03.145Z,63.55
2019-04-26T15:44:57.542Z,63.23
2019-04-26T15:47:52.379Z,63.20
2019-04-26T15:50:28.599Z,63.00
2019-04-26T15:52:59.621Z,63.87
2019-04-26T15:55:33.859Z,63.45
2019-04-26T15:58:08.185Z,63.51
2019-04-26T16:00:36.506Z,63.81
2019-04-26T16:03:07.684Z,63.40
2019-04-26T16:05:38.708Z,63.24
2019-04-26T16:08:09.964Z,64.30
2019-04-26T16:10:43.073Z,64.34
2019-04-26T16:13:20.941Z,64.44
2019-04-26T16:15:48.679Z,64.50
2019-04-26T16:18:20.488Z,65.09
2019-04-26T16:20:53.397Z,65.20
2019-04-26T16:23:38.130Z,65.02
2019-04-26T16:25:58.681Z,65.31
2019-04-26T16:28:38.304Z,65.42
2019-04-26T16:31:28.167Z,65.51
2019-04-26T16:34:06.601Z,65.38
2019-04-26T16:36:36.560Z,65.28
2019-04-26T16:39:10.355Z,65.23
2019-04-26T16:41:42.183Z,65.30
2019-04-26T16:44:13.752Z,65.53
2019-04-26T16:46:44.774Z,66.23
2019-04-26T16:49:15.733Z,66.62
2019-04-26T16:51:54.503Z,66.60
2019-04-26T16:54:22.072Z,66.38
2019-04-26T16:56:52.793Z,66.65
2019-04-26T16:59:26.764Z,66.42
2019-04-26T17:02:01.448Z,66.47
2019-04-26T17:04:32.271Z,66.45
2019-04-26T17:07:04.940Z,66.64
2019-04-26T17:09:54.454Z,66.73
2019-04-26T17:12:10.488Z,66.71
2019-04-26T17:14:47.665Z,66.36
2019-04-26T17:17:14.882Z,66.46
2019-04-26T17:19:45.886Z,66.45
2019-04-26T17:22:44.170Z,66.59
2019-04-26T17:25:41.682Z,66.22
2019-04-26T17:28:13.995Z,66.36
2019-04-26T17:30:46.100Z,65.75
2019-04-26T17:33:17.094Z,66.16
2019-04-26T17:35:48.586Z,67.24
2019-04-26T17:38:20.725Z,67.83
2019-04-26T17:40:52.269Z,68.51
2019-04-26T17:43:23.356Z,69.88
2019-04-26T17:45:54.926Z,70.20
2019-04-26T17:48:26.349Z,70.35
2019-04-26T17:50:57.400Z,70.36
2019-04-26T17:53:31.278Z,70.80
2019-04-26T17:56:01.603Z,71.44
2019-04-26T17:58:35.751Z,71.32
2019-04-26T18:01:06.141Z,71.89
2019-04-26T18:03:37.335Z,72.06
2019-04-26T18:06:09.675Z,72.46
2019-04-26T18:08:51.937Z,72.71
2019-04-26T18:11:19.702Z,72.51
2019-04-26T18:13:47.371Z,72.46
2019-04-26T18:16:22.015Z,73.32
2019-04-26T18:19:14.448Z,73.44
2019-04-26T18:22:05.766Z,73.47
2019-04-26T18:24:36.958Z,73.51
2019-04-26T18:27:11.952Z,73.42
2019-04-26T18:29:43.697Z,73.37
2019-04-26T18:32:15.748Z,73.80
2019-04-26T18:34:46.778Z,73.90
2019-04-26T18:37:18.222Z,73.85
2019-04-26T18:39:49.731Z,74.44
2019-04-26T18:42:20.805Z,74.35
2019-04-26T18:44:52.307Z,74.02
2019-04-26T18:47:32.518Z,74.03
2019-04-26T18:50:03.659Z,74.30
2019-04-26T18:52:37.362Z,73.94
2019-04-26T18:55:16.466Z,74.24
2019-04-26T18:57:55.133Z,74.17
2019-04-26T19:00:29.247Z,74.07
2019-04-26T19:03:00.485Z,74.34
2019-04-26T19:05:31.468Z,74.46
2019-04-26T19:08:02.726Z,74.27
2019-04-26T19:10:34.377Z,74.33
2019-04-26T19:13:17.542Z,74.62
2019-04-26T19:15:55.370Z,74.83
2019-04-26T19:18:37.919Z,74.76
2019-04-26T19:21:17.925Z,74.87
2019-04-26T19:23:49.726Z,74.64
2019-04-26T19:26:31.803Z,74.24
2019-04-26T19:28:53.703Z,74.48
2019-04-26T19:31:27.204Z,74.62
2019-04-26T19:33:58.503Z,74.45
2019-04-26T19:36:32.941Z,74.51
2019-04-26T19:39:05.607Z,74.33
2019-04-26T19:41:38.685Z,74.11
2019-04-26T19:44:09.663Z,73.81
2019-04-26T19:46:53.626Z,73.75
2019-04-26T19:49:41.546Z,73.87
2019-04-26T19:52:39.551Z,74.38
2019-04-26T19:55:26.981Z,73.71
2019-04-26T19:58:16.174Z,73.73
2019-04-26T20:00:46.625Z,73.90
2019-04-26T20:03:16.901Z,73.41
2019-04-26T20:05:48.144Z,73.91
2019-04-26T20:08:21.552Z,74.15
2019-04-26T20:10:54.011Z,73.77
2019-04-26T20:13:25.376Z,73.85
2019-04-26T20:15:57.422Z,73.81
2019-04-26T20:18:34.407Z,73.70
2019-04-26T20:21:06.627Z,73.52
2019-04-26T20:23:38.357Z,73.68
2019-04-26T20:26:09.040Z,73.92
2019-04-26T20:28:40.163Z,73.99
2019-04-26T20:31:22.700Z,73.86
2019-04-26T20:33:54.264Z,73.73
2019-04-26T20:36:25.276Z,73.30
2019-04-26T20:38:56.726Z,73.03
2019-04-26T20:41:28.514Z,73.62
2019-04-26T20:44:07.362Z,73.71
2019-04-26T20:46:34.346Z,73.72
2019-04-26T20:49:09.148Z,73.60
2019-04-26T20:51:40.758Z,73.87
2019-04-26T20:54:16.430Z,73.50
2019-04-26T20:56:50.534Z,73.42
2019-04-26T20:59:25.072Z,73.12
2019-04-26T21:02:06.965Z,73.35
2019-04-26T21:04:38.120Z,73.37
2019-04-26T21:07:06.750Z,73.50
2019-04-26T21:09:40.851Z,73.70
2019-04-26T21:12:15.932Z,73.82
2019-04-26T21:14:45.532Z,73.90
2019-04-26T21:17:19.457Z,73.35
2019-04-26T21:19:54.280Z,72.57
2019-04-26T21:22:28.459Z,72.42
2019-04-26T21:25:04.764Z,72.48
2019-04-26T21:27:46.924Z,72.23
2019-04-26T21:30:38.594Z,72.57
2019-04-26T21:33:19.726Z,72.29
2019-04-26T21:35:57.669Z,73.42
2019-04-26T21:38:44.436Z,73.23
2019-04-26T21:41:21.336Z,72.94
2019-04-26T21:43:53.323Z,73.55
2019-04-26T21:46:25.386Z,73.52
2019-04-26T21:48:56.643Z,72.82
2019-04-26T21:51:28.581Z,72.83
2019-04-26T21:54:00.102Z,72.76
2019-04-26T21:56:32.070Z,72.91
2019-04-26T21:59:04.146Z,72.23
2019-04-26T22:01:35.378Z,72.43
2019-04-26T22:04:08.036Z,72.19
2019-04-26T22:06:39.156Z,72.28
2019-04-26T22:09:21.428Z,73.04
2019-04-26T22:11:53.923Z,72.69
2019-04-26T22:14:30.091Z,73.04
2019-04-26T22:17:06.472Z,72.66
2019-04-26T22:19:55.150Z,73.50
2019-04-26T22:22:46.723Z,73.72
2019-04-26T22:25:19.315Z,73.30
2019-04-26T22:27:54.053Z,73.42
2019-04-26T22:30:28.536Z,72.34
2019-04-26T22:33:00.441Z,71.83
2019-04-26T22:35:31.474Z,71.79
2019-04-26T22:38:03.993Z,72.51
2019-04-26T22:40:35.087Z,72.55
2019-04-26T22:43:19.922Z,71.84
2019-04-26T22:45:55.149Z,72.13
2019-04-26T22:48:31.170Z,72.06
2019-04-26T22:51:04.485Z,72.28
2019-04-26T22:53:35.378Z,72.74
2019-04-26T22:56:06.433Z,72.76
2019-04-26T22:58:37.420Z,73.43
2019-04-26T23:01:08.443Z,74.02
2019-04-26T23:03:41.237Z,73.67
2019-04-26T23:06:13.553Z,73.18
2019-04-26T23:08:45.040Z,72.73
2019-04-26T23:11:17.089Z,72.62
2019-04-26T23:13:55.786Z,73.40
2019-04-26T23:16:55.900Z,73.81
2019-04-26T23:19:24.986Z,73.08
2019-04-26T23:21:56.767Z,72.51
2019-04-26T23:24:28.039Z,72.16
2019-04-26T23:26:59.045Z,73.08
2019-04-26T23:29:30.577Z,72.82
2019-04-26T23:32:03.483Z,72.17
2019-04-26T23:34:34.815Z,72.46
2019-04-26T23:37:06.633Z,72.53
